Quentin, Mississippi
Current Conditions -  °F | °C
As of 8:35 PM on Sunday 21 Dec 2014 (Local Time) from KMCB Reporting Station
Overcast Overcast  
Wind Chill: 11°   Ceiling: 9500
Heat Index: 11°   Visibility: 9mi
Dew Point:   Wind: 6mph
Humidity: 86%   Direction: 100°E
Pressure: 29.97"   Gusts: NA
Location:  31.5295°N, 90.7634°W
Report Text: KMCB 220235Z AUTO 10005KT 9SM SCT018 OVC095 11/09 A2997 RMK AO2 T01110089
Loading
Personal Weather Stations






























Interactive Weather Map New forecast layout! Learn more

10-Day Weather Forecast

Advertisements
Track Severe Weather on mobile